• Join FlightAware (Why Join?)
  • Login
  • US Flag 
09:07PM EDT


 

Airport Tracker/Info


-or-


 

Live Flight TrackerFlight Track Log ✈ FFT333 ✈ 08-May-2013 ✈ KDEN - KABQ

Flight Track Log - Related Links

Times and Time Zones

All times are in EDT time to prevent confusion due to time zone crossing. See the FFT333 flight status page for this flight to view local times or setup timezone preferences in your user account.

Time Position Orientation Groundspeed Altitude Reporting Facility
EDT Latitude Longitude Course Direction KTS MPH feet Rate Location/Type
10:14AM 39.8000 -104.6500 201° Southwest 181 208 7,300  Level Denver TRACON
10:15AM 39.7500 -104.6333 166° South 233 268 8,900 1,980 Climbing Denver TRACON
10:15AM 39.6833 -104.6000 159° South 294 338 10,700 2,160 Climbing Denver TRACON
10:16AM 39.6558 -104.5928 169° South 292 336 11,400 2,880 Climbing Denver Center
10:17AM 39.5642 -104.6122 189° South 333 383 14,700 2,940 Climbing Denver Center
10:18AM 39.4583 -104.6372 190° South 355 409 17,500 2,820 Climbing Denver Center
10:19AM 39.3743 -104.8813 201° Southwest  Level Estimated
10:19AM 39.3578 -104.6622 191° South 366 421 20,600  Level Denver Center
10:20AM 39.2558 -104.6867 191° South 373 429 23,300 2,340 Climbing Denver Center
10:21AM 39.1417 -104.7128 190° South 393 452 25,500 2,040 Climbing Denver Center
10:22AM 39.0339 -104.7444 193° South 392 451 27,600 1,740 Climbing Denver Center
10:23AM 38.9350 -104.8056 206° Southwest 409 471 29,200 1,500 Climbing Denver Center
10:24AM 38.8172 -104.8772 205° Southwest 417 480 30,700 1,740 Climbing Denver Center
10:25AM 38.7131 -104.9436 206° Southwest 433 498 32,800 2,400 Climbing Denver Center
10:26AM 38.6003 -105.0219 208° Southwest 420 483 35,700 1,980 Climbing Denver Center
10:27AM 38.5078 -105.0867 209° Southwest 404 465 36,900 960 Climbing Denver Center
10:28AM 38.3986 -105.1608 208° Southwest 399 459 37,700 480 Climbing Denver Center
10:29AM 38.3031 -105.2269 209° Southwest 405 466 38,000 120 Climbing Denver Center
10:30AM 38.1936 -105.3019 208° Southwest 403 464 38,000  Level Denver Center
10:31AM 38.0986 -105.3664 208° Southwest 403 464 38,000  Level Denver Center
10:32AM 38.0053 -105.4308 209° Southwest 401 461 38,000  Level Denver Center
10:33AM 37.8956 -105.5039 208° Southwest 400 460 38,000  Level Denver Center
10:34AM 37.8000 -105.5681 208° Southwest 402 463 38,000  Level Denver Center
10:35AM 37.6889 -105.6394 207° Southwest 403 464 38,000  Level Denver Center
10:36AM 37.5900 -105.6892 202° Southwest 399 459 38,000  Level Denver Center
10:37AM 37.4717 -105.7511 203° Southwest 406 467 38,000  Level Denver Center
10:38AM 37.3725 -105.8028 202° Southwest 404 465 38,100  Climbing Denver Center
10:39AM 37.2572 -105.8544 200° South 393 452 38,000 -60 Descending Denver Center
10:40AM 37.1583 -105.8989 200° South 392 451 38,000 -60 Level Denver Center
10:41AM 37.0431 -105.9486 199° South 392 451 37,900 -540 Descending Denver Center
10:43AM 36.9464 -105.9917 200° South 392 451 36,900 -1,020 Descending Denver Center
10:44AM 36.8261 -106.0442 199° South 403 464 35,800 -900 Descending Denver Center
10:45AM 36.7283 -106.0878 200° South 404 465 34,900 -1,020 Descending Denver Center
10:46AM 36.6025 -106.1436 200° South 415 478 33,700 -1,200 Descending Albuquerque Center
10:47AM 36.4872 -106.1964 200° South 402 463 32,600 -1,020 Descending Albuquerque Center
10:48AM 36.3844 -106.2422 200° South 406 467 31,700 -1,140 Descending Albuquerque Center
10:49AM 36.2856 -106.2850 199° South 397 457 30,300 -1,860 Descending Albuquerque Center
10:50AM 36.1753 -106.3336 200° South 382 440 27,900 -2,100 Descending Albuquerque Center
10:51AM 36.0939 -106.3703 200° South 367 422 26,000 -2,160 Descending Albuquerque Center
10:52AM 35.9828 -106.4172 199° South 353 406 23,500 -2,220 Descending Albuquerque Center
10:53AM 35.8958 -106.4542 199° South 346 398 21,500 -1,980 Descending Albuquerque Center
10:54AM 35.7992 -106.4933 198° South 331 381 19,500 -1,860 Descending Albuquerque Center
10:55AM 35.7178 -106.5275 199° South 325 374 17,700 -1,620 Descending Albuquerque Center
10:56AM 35.6369 -106.5592 198° South 322 371 16,200 -1,620 Descending Albuquerque Center
10:57AM 35.5447 -106.6028 201° Southwest 308 354 14,500 -1,320 Descending Albuquerque Center
10:58AM 35.4922 -106.6319 204° Southwest 293 337 14,000 -960 Descending Albuquerque Center
10:58AM 35.4675 -106.6456 204° Southwest 295 339 13,500 -1,500 Descending Albuquerque Center
10:59AM 35.4217 -106.6686 202° Southwest 279 321 12,500 -1,500 Descending Albuquerque Center
10:59AM 35.3944 -106.6844 205° Southwest 286 329 12,000 -1,440 Descending Albuquerque Center
11:00AM 35.3533 -106.7044 202° Southwest 289 333 11,200 -1,560 Descending Albuquerque Center
11:00AM 35.3200 -106.7244 206° Southwest 289 333 10,400 -1,800 Descending Albuquerque Center
11:01AM 35.2792 -106.7444 202° Southwest 292 336 9,400 -1,800 Descending Albuquerque Center
11:01AM 35.2472 -106.7656 208° Southwest 290 334 8,600 -1,140 Descending Albuquerque Center
11:02AM 35.1814 -106.7956 200° South 271 312 7,900 -600 Descending Albuquerque Center
11:02AM 35.1758 -106.7953 178° South 279 321 8,000 120 Climbing Albuquerque Center
11:03AM 35.1356 -106.7892 173° South 231 266 8,000  Level Albuquerque Center
11:03AM 35.1111 -106.7858 174° South 245 282 8,000 -120 Level Albuquerque Center
11:04AM 35.0703 -106.7825 176° South 217 250 7,900 -300 Descending Albuquerque Center
11:04AM 35.0511 -106.7686 149° Southeast 231 266 7,700 -900 Descending Albuquerque Center
11:05AM 35.0433 -106.7247 102° East 189 217 7,000 -1,200 Descending Albuquerque Center
11:05AM 35.0444 -106.6925 88° East 203 234 6,500 -1,020 Descending Albuquerque Center
11:06AM 35.0436 -106.6650 92° East 164 189 6,000 -720 Descending Albuquerque Center
11:06AM 35.0444 -106.6392 88° East 178 205 5,800 -480 Descending Albuquerque Center
11:07AM 35.0439 -106.5972 91° East 159 183 5,300 -540 Descending Albuquerque Center
11:09AM 35.0333 -106.6000 121° Southeast  Level FlightAware Approximate